Raw METAR:
KGTU 182356Z 17007KT 10SM CLR 32/19 A2993 RMK AO2 SLP127 T03220189 10339 20317 56009

Visibility:
10 mi.

Remarks:
RMK AO2 SLP127 T03220189 10339 20317 56009

10 miles